sensor_id;sensor_type;location;lat;lon;timestamp;temperature;humidity
20171;DHT22;10245;51.344;6.620;2023-04-15T00:01:21;6.30;81.10
20171;DHT22;10245;51.344;6.620;2023-04-15T00:03:45;6.30;81.00
20171;DHT22;10245;51.344;6.620;2023-04-15T00:06:09;6.30;81.80
20171;DHT22;10245;51.344;6.620;2023-04-15T00:08:33;6.30;82.20
20171;DHT22;10245;51.344;6.620;2023-04-15T00:10:56;6.20;82.10
20171;DHT22;10245;51.344;6.620;2023-04-15T00:13:25;6.20;82.10
20171;DHT22;10245;51.344;6.620;2023-04-15T00:15:48;6.20;82.40
20171;DHT22;10245;51.344;6.620;2023-04-15T00:18:11;6.20;82.70
20171;DHT22;10245;51.344;6.620;2023-04-15T00:20:35;6.10;82.50
20171;DHT22;10245;51.344;6.620;2023-04-15T00:22:59;6.10;82.80
20171;DHT22;10245;51.344;6.620;2023-04-15T00:25:22;6.10;82.70
20171;DHT22;10245;51.344;6.620;2023-04-15T00:27:45;6.00;82.50
20171;DHT22;10245;51.344;6.620;2023-04-15T00:30:11;6.10;83.00
20171;DHT22;10245;51.344;6.620;2023-04-15T00:32:34;6.00;82.70
20171;DHT22;10245;51.344;6.620;2023-04-15T00:34:57;6.00;82.90
20171;DHT22;10245;51.344;6.620;2023-04-15T00:37:21;6.00;83.30
20171;DHT22;10245;51.344;6.620;2023-04-15T00:39:45;5.90;83.40
20171;DHT22;10245;51.344;6.620;2023-04-15T00:42:09;5.90;83.30
20171;DHT22;10245;51.344;6.620;2023-04-15T00:44:33;5.80;83.20
20171;DHT22;10245;51.344;6.620;2023-04-15T00:46:59;5.80;83.40
20171;DHT22;10245;51.344;6.620;2023-04-15T00:49:22;5.80;83.70
20171;DHT22;10245;51.344;6.620;2023-04-15T00:51:47;5.80;84.00
20171;DHT22;10245;51.344;6.620;2023-04-15T00:54:10;5.80;84.70
20171;DHT22;10245;51.344;6.620;2023-04-15T00:56:35;5.80;84.40
20171;DHT22;10245;51.344;6.620;2023-04-15T00:59:00;5.70;84.50
20171;DHT22;10245;51.344;6.620;2023-04-15T01:01:24;5.70;84.50
20171;DHT22;10245;51.344;6.620;2023-04-15T01:03:50;5.70;85.00
20171;DHT22;10245;51.344;6.620;2023-04-15T01:06:14;5.60;85.10
20171;DHT22;10245;51.344;6.620;2023-04-15T01:08:38;5.60;84.50
20171;DHT22;10245;51.344;6.620;2023-04-15T01:11:02;5.60;84.80
20171;DHT22;10245;51.344;6.620;2023-04-15T01:13:26;5.60;84.70
20171;DHT22;10245;51.344;6.620;2023-04-15T01:15:50;5.60;84.40
20171;DHT22;10245;51.344;6.620;2023-04-15T01:18:14;5.50;84.80
20171;DHT22;10245;51.344;6.620;2023-04-15T01:20:38;5.50;85.10
20171;DHT22;10245;51.344;6.620;2023-04-15T01:23:02;5.50;84.90
20171;DHT22;10245;51.344;6.620;2023-04-15T01:25:30;5.50;85.00
20171;DHT22;10245;51.344;6.620;2023-04-15T01:27:54;5.50;84.90
20171;DHT22;10245;51.344;6.620;2023-04-15T01:30:18;5.50;84.30
20171;DHT22;10245;51.344;6.620;2023-04-15T01:32:41;5.50;84.50
20171;DHT22;10245;51.344;6.620;2023-04-15T01:35:06;5.50;84.70
20171;DHT22;10245;51.344;6.620;2023-04-15T01:37:29;5.50;84.90
20171;DHT22;10245;51.344;6.620;2023-04-15T01:39:53;5.40;84.70
20171;DHT22;10245;51.344;6.620;2023-04-15T01:42:20;5.50;84.70
20171;DHT22;10245;51.344;6.620;2023-04-15T01:44:44;5.50;84.30
20171;DHT22;10245;51.344;6.620;2023-04-15T01:47:07;5.50;84.30
20171;DHT22;10245;51.344;6.620;2023-04-15T01:49:31;5.50;83.80
20171;DHT22;10245;51.344;6.620;2023-04-15T01:51:54;5.50;83.40
20171;DHT22;10245;51.344;6.620;2023-04-15T01:54:18;5.50;83.60
20171;DHT22;10245;51.344;6.620;2023-04-15T01:56:41;5.40;83.50
20171;DHT22;10245;51.344;6.620;2023-04-15T01:59:06;5.40;83.20
20171;DHT22;10245;51.344;6.620;2023-04-15T02:01:30;5.30;84.10
20171;DHT22;10245;51.344;6.620;2023-04-15T02:03:53;5.20;84.50
20171;DHT22;10245;51.344;6.620;2023-04-15T02:06:17;5.20;85.00
20171;DHT22;10245;51.344;6.620;2023-04-15T02:08:42;5.20;84.70
20171;DHT22;10245;51.344;6.620;2023-04-15T02:11:05;5.20;84.80
20171;DHT22;10245;51.344;6.620;2023-04-15T02:13:28;5.10;85.00
20171;DHT22;10245;51.344;6.620;2023-04-15T02:15:54;5.10;85.20
20171;DHT22;10245;51.344;6.620;2023-04-15T02:18:17;5.10;84.50
20171;DHT22;10245;51.344;6.620;2023-04-15T02:20:41;5.10;85.00
20171;DHT22;10245;51.344;6.620;2023-04-15T02:23:05;5.00;85.20
20171;DHT22;10245;51.344;6.620;2023-04-15T02:25:29;5.00;85.60
20171;DHT22;10245;51.344;6.620;2023-04-15T02:27:52;5.00;85.70
20171;DHT22;10245;51.344;6.620;2023-04-15T02:30:17;5.00;85.90
20171;DHT22;10245;51.344;6.620;2023-04-15T02:32:42;5.00;85.90
20171;DHT22;10245;51.344;6.620;2023-04-15T02:35:07;4.90;86.00
20171;DHT22;10245;51.344;6.620;2023-04-15T02:37:31;4.90;86.00
20171;DHT22;10245;51.344;6.620;2023-04-15T02:39:57;4.90;85.90
20171;DHT22;10245;51.344;6.620;2023-04-15T02:42:21;4.90;85.70
20171;DHT22;10245;51.344;6.620;2023-04-15T02:44:49;4.90;85.80
20171;DHT22;10245;51.344;6.620;2023-04-15T02:47:12;4.80;85.70
20171;DHT22;10245;51.344;6.620;2023-04-15T02:49:38;4.90;86.10
20171;DHT22;10245;51.344;6.620;2023-04-15T02:52:01;4.80;85.90
20171;DHT22;10245;51.344;6.620;2023-04-15T02:54:25;4.90;86.20
20171;DHT22;10245;51.344;6.620;2023-04-15T02:56:50;4.80;86.30
20171;DHT22;10245;51.344;6.620;2023-04-15T02:59:16;4.70;86.40
20171;DHT22;10245;51.344;6.620;2023-04-15T03:01:39;4.80;86.30
20171;DHT22;10245;51.344;6.620;2023-04-15T03:04:03;4.70;86.40
20171;DHT22;10245;51.344;6.620;2023-04-15T03:06:28;4.70;86.30
20171;DHT22;10245;51.344;6.620;2023-04-15T03:08:51;4.70;86.40
20171;DHT22;10245;51.344;6.620;2023-04-15T03:11:15;4.60;86.70
20171;DHT22;10245;51.344;6.620;2023-04-15T03:13:39;4.60;86.60
20171;DHT22;10245;51.344;6.620;2023-04-15T03:16:14;4.60;86.70
20171;DHT22;10245;51.344;6.620;2023-04-15T03:18:38;4.60;87.00
20171;DHT22;10245;51.344;6.620;2023-04-15T03:21:02;4.50;87.10
20171;DHT22;10245;51.344;6.620;2023-04-15T03:23:30;4.50;87.20
20171;DHT22;10245;51.344;6.620;2023-04-15T03:25:54;4.50;87.10
20171;DHT22;10245;51.344;6.620;2023-04-15T03:28:19;4.50;87.20
20171;DHT22;10245;51.344;6.620;2023-04-15T03:30:42;4.50;87.40
20171;DHT22;10245;51.344;6.620;2023-04-15T03:33:06;4.50;87.30
20171;DHT22;10245;51.344;6.620;2023-04-15T03:35:30;4.50;87.20
20171;DHT22;10245;51.344;6.620;2023-04-15T03:37:54;4.50;87.20
20171;DHT22;10245;51.344;6.620;2023-04-15T03:40:20;4.50;87.40
20171;DHT22;10245;51.344;6.620;2023-04-15T03:42:43;4.50;87.30
20171;DHT22;10245;51.344;6.620;2023-04-15T03:45:07;4.50;87.10
20171;DHT22;10245;51.344;6.620;2023-04-15T03:47:31;4.50;87.10
20171;DHT22;10245;51.344;6.620;2023-04-15T03:49:54;4.60;87.00
20171;DHT22;10245;51.344;6.620;2023-04-15T03:52:18;4.70;87.10
20171;DHT22;10245;51.344;6.620;2023-04-15T03:54:41;4.80;86.80
20171;DHT22;10245;51.344;6.620;2023-04-15T03:57:06;4.80;86.70
20171;DHT22;10245;51.344;6.620;2023-04-15T03:59:29;4.70;86.80
20171;DHT22;10245;51.344;6.620;2023-04-15T04:01:53;4.90;86.80
20171;DHT22;10245;51.344;6.620;2023-04-15T04:04:16;5.00;87.00
20171;DHT22;10245;51.344;6.620;2023-04-15T04:06:40;5.10;87.00
20171;DHT22;10245;51.344;6.620;2023-04-15T04:09:03;5.10;86.60
20171;DHT22;10245;51.344;6.620;2023-04-15T04:11:26;5.10;86.40
20171;DHT22;10245;51.344;6.620;2023-04-15T04:13:51;5.10;86.50
20171;DHT22;10245;51.344;6.620;2023-04-15T04:16:14;5.20;86.60
20171;DHT22;10245;51.344;6.620;2023-04-15T04:18:38;5.20;86.40
20171;DHT22;10245;51.344;6.620;2023-04-15T04:21:01;5.30;86.20
20171;DHT22;10245;51.344;6.620;2023-04-15T04:23:24;5.40;86.20
20171;DHT22;10245;51.344;6.620;2023-04-15T04:25:48;5.50;86.10
20171;DHT22;10245;51.344;6.620;2023-04-15T04:28:11;5.30;86.20
20171;DHT22;10245;51.344;6.620;2023-04-15T04:30:36;5.30;86.40
20171;DHT22;10245;51.344;6.620;2023-04-15T04:32:59;5.30;86.60
20171;DHT22;10245;51.344;6.620;2023-04-15T04:35:23;5.50;86.80
20171;DHT22;10245;51.344;6.620;2023-04-15T04:37:46;5.30;86.40
20171;DHT22;10245;51.344;6.620;2023-04-15T04:40:10;5.40;86.60
20171;DHT22;10245;51.344;6.620;2023-04-15T04:42:34;5.40;86.70
20171;DHT22;10245;51.344;6.620;2023-04-15T04:45:00;5.40;86.80
20171;DHT22;10245;51.344;6.620;2023-04-15T04:47:25;5.40;87.00
20171;DHT22;10245;51.344;6.620;2023-04-15T04:49:48;5.50;86.90
20171;DHT22;10245;51.344;6.620;2023-04-15T04:52:12;5.50;86.70
20171;DHT22;10245;51.344;6.620;2023-04-15T04:54:35;5.50;86.80
20171;DHT22;10245;51.344;6.620;2023-04-15T04:56:58;5.50;86.70
20171;DHT22;10245;51.344;6.620;2023-04-15T04:59:22;5.50;86.70
20171;DHT22;10245;51.344;6.620;2023-04-15T05:01:46;5.50;86.60
20171;DHT22;10245;51.344;6.620;2023-04-15T05:04:11;5.60;86.80
20171;DHT22;10245;51.344;6.620;2023-04-15T05:06:34;5.80;86.50
20171;DHT22;10245;51.344;6.620;2023-04-15T05:08:58;6.00;86.10
20171;DHT22;10245;51.344;6.620;2023-04-15T05:11:22;5.90;86.00
20171;DHT22;10245;51.344;6.620;2023-04-15T05:13:45;6.00;85.90
20171;DHT22;10245;51.344;6.620;2023-04-15T05:16:08;5.90;85.70
20171;DHT22;10245;51.344;6.620;2023-04-15T05:18:33;6.00;85.80
20171;DHT22;10245;51.344;6.620;2023-04-15T05:20:59;6.00;86.00
20171;DHT22;10245;51.344;6.620;2023-04-15T05:23:23;6.00;86.00
20171;DHT22;10245;51.344;6.620;2023-04-15T05:25:46;6.00;85.90
20171;DHT22;10245;51.344;6.620;2023-04-15T05:28:10;6.10;85.70
20171;DHT22;10245;51.344;6.620;2023-04-15T05:30:33;6.10;85.60
20171;DHT22;10245;51.344;6.620;2023-04-15T05:32:57;6.10;85.90
20171;DHT22;10245;51.344;6.620;2023-04-15T05:35:20;6.20;85.70
20171;DHT22;10245;51.344;6.620;2023-04-15T05:37:45;6.20;85.60
20171;DHT22;10245;51.344;6.620;2023-04-15T05:40:09;6.20;85.80
20171;DHT22;10245;51.344;6.620;2023-04-15T05:42:34;6.30;85.60
20171;DHT22;10245;51.344;6.620;2023-04-15T05:44:57;6.30;85.70
20171;DHT22;10245;51.344;6.620;2023-04-15T05:47:20;6.40;85.70
20171;DHT22;10245;51.344;6.620;2023-04-15T05:49:44;6.40;85.90
20171;DHT22;10245;51.344;6.620;2023-04-15T05:52:08;6.50;85.70
20171;DHT22;10245;51.344;6.620;2023-04-15T05:54:33;6.60;85.50
20171;DHT22;10245;51.344;6.620;2023-04-15T05:56:56;6.80;85.40
20171;DHT22;10245;51.344;6.620;2023-04-15T05:59:19;6.90;85.20
20171;DHT22;10245;51.344;6.620;2023-04-15T06:01:43;6.90;85.10
20171;DHT22;10245;51.344;6.620;2023-04-15T06:04:06;7.00;84.80
20171;DHT22;10245;51.344;6.620;2023-04-15T06:06:31;7.00;84.30
20171;DHT22;10245;51.344;6.620;2023-04-15T06:08:54;7.10;84.40
20171;DHT22;10245;51.344;6.620;2023-04-15T06:11:20;7.20;84.10
20171;DHT22;10245;51.344;6.620;2023-04-15T06:13:44;7.20;84.00
20171;DHT22;10245;51.344;6.620;2023-04-15T06:16:07;7.30;83.90
20171;DHT22;10245;51.344;6.620;2023-04-15T06:18:30;7.30;84.00
20171;DHT22;10245;51.344;6.620;2023-04-15T06:20:53;7.30;83.90
20171;DHT22;10245;51.344;6.620;2023-04-15T06:23:17;7.50;83.80
20171;DHT22;10245;51.344;6.620;2023-04-15T06:25:40;7.50;83.40
20171;DHT22;10245;51.344;6.620;2023-04-15T06:28:05;7.50;83.30
20171;DHT22;10245;51.344;6.620;2023-04-15T06:30:29;7.50;83.30
20171;DHT22;10245;51.344;6.620;2023-04-15T06:32:54;7.50;83.20
20171;DHT22;10245;51.344;6.620;2023-04-15T06:35:17;7.60;83.50
20171;DHT22;10245;51.344;6.620;2023-04-15T06:37:41;7.60;83.70
20171;DHT22;10245;51.344;6.620;2023-04-15T06:40:05;7.60;83.70
20171;DHT22;10245;51.344;6.620;2023-04-15T06:42:30;7.80;83.50
20171;DHT22;10245;51.344;6.620;2023-04-15T06:44:56;7.80;83.30
20171;DHT22;10245;51.344;6.620;2023-04-15T06:47:19;7.90;83.60
20171;DHT22;10245;51.344;6.620;2023-04-15T06:49:42;8.00;83.50
20171;DHT22;10245;51.344;6.620;2023-04-15T06:52:06;8.00;83.10
20171;DHT22;10245;51.344;6.620;2023-04-15T06:54:29;8.10;83.10
20171;DHT22;10245;51.344;6.620;2023-04-15T06:56:52;8.20;82.80
20171;DHT22;10245;51.344;6.620;2023-04-15T06:59:16;8.30;82.70
20171;DHT22;10245;51.344;6.620;2023-04-15T07:01:41;8.40;82.50
20171;DHT22;10245;51.344;6.620;2023-04-15T07:04:04;8.50;82.90
20171;DHT22;10245;51.344;6.620;2023-04-15T07:06:27;8.60;83.20
20171;DHT22;10245;51.344;6.620;2023-04-15T07:08:51;8.70;82.20
20171;DHT22;10245;51.344;6.620;2023-04-15T07:11:14;9.00;81.90
20171;DHT22;10245;51.344;6.620;2023-04-15T07:13:38;9.10;81.80
20171;DHT22;10245;51.344;6.620;2023-04-15T07:16:01;9.10;80.50
20171;DHT22;10245;51.344;6.620;2023-04-15T07:18:26;9.30;80.50
20171;DHT22;10245;51.344;6.620;2023-04-15T07:20:49;9.50;80.30
20171;DHT22;10245;51.344;6.620;2023-04-15T07:23:13;9.80;79.90
20171;DHT22;10245;51.344;6.620;2023-04-15T07:25:37;9.90;80.20
20171;DHT22;10245;51.344;6.620;2023-04-15T07:28:00;10.00;79.80
20171;DHT22;10245;51.344;6.620;2023-04-15T07:30:23;10.00;78.20
20171;DHT22;10245;51.344;6.620;2023-04-15T07:32:47;10.00;78.60
20171;DHT22;10245;51.344;6.620;2023-04-15T07:35:11;10.00;77.80
20171;DHT22;10245;51.344;6.620;2023-04-15T07:37:35;10.30;77.50
20171;DHT22;10245;51.344;6.620;2023-04-15T07:39:58;10.30;76.50
20171;DHT22;10245;51.344;6.620;2023-04-15T07:42:22;10.30;76.00
20171;DHT22;10245;51.344;6.620;2023-04-15T07:44:45;10.40;75.30
20171;DHT22;10245;51.344;6.620;2023-04-15T07:47:08;10.50;75.70
20171;DHT22;10245;51.344;6.620;2023-04-15T07:49:32;10.50;75.60
20171;DHT22;10245;51.344;6.620;2023-04-15T07:51:57;10.70;74.40
20171;DHT22;10245;51.344;6.620;2023-04-15T07:54:21;10.50;73.20
20171;DHT22;10245;51.344;6.620;2023-04-15T07:56:44;10.70;73.90
20171;DHT22;10245;51.344;6.620;2023-04-15T07:59:07;10.90;73.00
20171;DHT22;10245;51.344;6.620;2023-04-15T08:01:31;10.90;73.30
20171;DHT22;10245;51.344;6.620;2023-04-15T08:03:54;11.10;72.30
20171;DHT22;10245;51.344;6.620;2023-04-15T08:06:18;11.10;70.70
20171;DHT22;10245;51.344;6.620;2023-04-15T08:08:43;11.30;71.30
20171;DHT22;10245;51.344;6.620;2023-04-15T08:11:06;11.20;69.30
20171;DHT22;10245;51.344;6.620;2023-04-15T08:13:30;11.20;69.20
20171;DHT22;10245;51.344;6.620;2023-04-15T08:16:18;10.80;69.00
20171;DHT22;10245;51.344;6.620;2023-04-15T08:18:42;11.10;69.60
20171;DHT22;10245;51.344;6.620;2023-04-15T08:21:05;11.10;67.80
20171;DHT22;10245;51.344;6.620;2023-04-15T08:23:29;11.10;69.20
20171;DHT22;10245;51.344;6.620;2023-04-15T08:25:53;11.30;68.10
20171;DHT22;10245;51.344;6.620;2023-04-15T08:28:17;11.20;65.70
20171;DHT22;10245;51.344;6.620;2023-04-15T08:30:40;11.30;68.10
20171;DHT22;10245;51.344;6.620;2023-04-15T08:33:03;11.50;68.50
20171;DHT22;10245;51.344;6.620;2023-04-15T08:35:27;11.70;66.60
20171;DHT22;10245;51.344;6.620;2023-04-15T08:37:50;11.80;67.60
20171;DHT22;10245;51.344;6.620;2023-04-15T08:40:13;12.00;67.00
20171;DHT22;10245;51.344;6.620;2023-04-15T08:42:42;12.10;65.00
20171;DHT22;10245;51.344;6.620;2023-04-15T08:45:08;12.10;66.90
20171;DHT22;10245;51.344;6.620;2023-04-15T08:47:33;12.40;65.70
20171;DHT22;10245;51.344;6.620;2023-04-15T08:49:57;12.30;65.60
20171;DHT22;10245;51.344;6.620;2023-04-15T08:52:20;12.10;65.00
20171;DHT22;10245;51.344;6.620;2023-04-15T08:54:44;12.00;64.00
20171;DHT22;10245;51.344;6.620;2023-04-15T08:57:07;12.00;64.70
20171;DHT22;10245;51.344;6.620;2023-04-15T08:59:32;12.40;67.50
20171;DHT22;10245;51.344;6.620;2023-04-15T09:01:57;12.30;65.00
20171;DHT22;10245;51.344;6.620;2023-04-15T09:04:20;12.50;66.40
20171;DHT22;10245;51.344;6.620;2023-04-15T09:06:43;12.70;66.00
20171;DHT22;10245;51.344;6.620;2023-04-15T09:09:07;12.50;63.80
20171;DHT22;10245;51.344;6.620;2023-04-15T09:11:30;12.90;64.30
20171;DHT22;10245;51.344;6.620;2023-04-15T09:13:54;12.30;62.30
20171;DHT22;10245;51.344;6.620;2023-04-15T09:16:19;12.50;65.90
20171;DHT22;10245;51.344;6.620;2023-04-15T09:18:43;12.70;62.20
20171;DHT22;10245;51.344;6.620;2023-04-15T09:21:07;13.00;61.30
20171;DHT22;10245;51.344;6.620;2023-04-15T09:23:32;13.10;62.00
20171;DHT22;10245;51.344;6.620;2023-04-15T09:25:56;12.80;64.70
20171;DHT22;10245;51.344;6.620;2023-04-15T09:28:23;12.80;60.90
20171;DHT22;10245;51.344;6.620;2023-04-15T09:30:50;13.00;64.40
20171;DHT22;10245;51.344;6.620;2023-04-15T09:33:16;13.20;63.10
20171;DHT22;10245;51.344;6.620;2023-04-15T09:35:39;12.90;66.20
20171;DHT22;10245;51.344;6.620;2023-04-15T09:38:04;12.80;65.20
20171;DHT22;10245;51.344;6.620;2023-04-15T09:40:32;12.60;65.80
20171;DHT22;10245;51.344;6.620;2023-04-15T09:42:56;12.60;64.70
20171;DHT22;10245;51.344;6.620;2023-04-15T09:45:20;12.70;65.00
20171;DHT22;10245;51.344;6.620;2023-04-15T09:47:48;12.50;65.90
20171;DHT22;10245;51.344;6.620;2023-04-15T09:50:13;12.60;61.90
20171;DHT22;10245;51.344;6.620;2023-04-15T09:52:41;12.40;62.50
20171;DHT22;10245;51.344;6.620;2023-04-15T09:55:05;12.50;64.30
20171;DHT22;10245;51.344;6.620;2023-04-15T09:57:33;12.60;66.40
20171;DHT22;10245;51.344;6.620;2023-04-15T09:59:58;12.80;64.40
20171;DHT22;10245;51.344;6.620;2023-04-15T10:02:21;13.00;63.20
20171;DHT22;10245;51.344;6.620;2023-04-15T10:04:47;12.90;65.20
20171;DHT22;10245;51.344;6.620;2023-04-15T10:07:13;12.70;65.90
20171;DHT22;10245;51.344;6.620;2023-04-15T10:09:38;12.50;65.70
20171;DHT22;10245;51.344;6.620;2023-04-15T10:12:02;12.60;64.50
20171;DHT22;10245;51.344;6.620;2023-04-15T10:14:27;13.10;65.40
20171;DHT22;10245;51.344;6.620;2023-04-15T10:16:55;12.10;64.90
20171;DHT22;10245;51.344;6.620;2023-04-15T10:19:23;12.70;67.20
20171;DHT22;10245;51.344;6.620;2023-04-15T10:21:48;12.90;64.00
20171;DHT22;10245;51.344;6.620;2023-04-15T10:24:14;13.00;64.30
20171;DHT22;10245;51.344;6.620;2023-04-15T10:26:38;13.30;63.00
20171;DHT22;10245;51.344;6.620;2023-04-15T10:29:02;13.90;63.60
20171;DHT22;10245;51.344;6.620;2023-04-15T10:31:25;14.20;62.60
20171;DHT22;10245;51.344;6.620;2023-04-15T10:33:50;14.50;63.40
20171;DHT22;10245;51.344;6.620;2023-04-15T10:36:14;14.90;61.30
20171;DHT22;10245;51.344;6.620;2023-04-15T10:38:40;14.80;64.10
20171;DHT22;10245;51.344;6.620;2023-04-15T10:41:24;13.00;61.80
20171;DHT22;10245;51.344;6.620;2023-04-15T10:43:52;13.80;63.70
20171;DHT22;10245;51.344;6.620;2023-04-15T10:46:18;14.00;64.30
20171;DHT22;10245;51.344;6.620;2023-04-15T10:48:47;14.30;62.70
20171;DHT22;10245;51.344;6.620;2023-04-15T10:51:13;13.80;64.00
20171;DHT22;10245;51.344;6.620;2023-04-15T10:53:36;13.50;64.30
20171;DHT22;10245;51.344;6.620;2023-04-15T10:56:01;14.00;63.60
20171;DHT22;10245;51.344;6.620;2023-04-15T10:58:40;14.20;61.70
20171;DHT22;10245;51.344;6.620;2023-04-15T11:01:04;14.30;60.90
20171;DHT22;10245;51.344;6.620;2023-04-15T11:03:36;14.10;61.80
20171;DHT22;10245;51.344;6.620;2023-04-15T11:06:01;13.70;63.60
20171;DHT22;10245;51.344;6.620;2023-04-15T11:08:52;14.00;62.70
20171;DHT22;10245;51.344;6.620;2023-04-15T11:11:16;14.20;61.60
20171;DHT22;10245;51.344;6.620;2023-04-15T11:13:48;13.80;62.30
20171;DHT22;10245;51.344;6.620;2023-04-15T11:16:13;13.50;63.70
20171;DHT22;10245;51.344;6.620;2023-04-15T11:18:37;13.00;65.00
20171;DHT22;10245;51.344;6.620;2023-04-15T11:21:03;12.80;67.60
20171;DHT22;10245;51.344;6.620;2023-04-15T11:23:29;12.80;66.50
20171;DHT22;10245;51.344;6.620;2023-04-15T11:25:54;12.80;65.10
20171;DHT22;10245;51.344;6.620;2023-04-15T11:28:18;13.40;65.50
20171;DHT22;10245;51.344;6.620;2023-04-15T11:30:42;13.60;65.30
20171;DHT22;10245;51.344;6.620;2023-04-15T11:33:08;13.20;64.80
20171;DHT22;10245;51.344;6.620;2023-04-15T11:35:33;12.50;65.90
20171;DHT22;10245;51.344;6.620;2023-04-15T11:37:57;12.30;65.00
20171;DHT22;10245;51.344;6.620;2023-04-15T11:40:23;12.40;66.20
20171;DHT22;10245;51.344;6.620;2023-04-15T11:43:03;12.70;66.50
20171;DHT22;10245;51.344;6.620;2023-04-15T11:45:27;13.00;65.80
20171;DHT22;10245;51.344;6.620;2023-04-15T11:47:53;13.20;65.60
20171;DHT22;10245;51.344;6.620;2023-04-15T11:50:17;13.00;66.40
20171;DHT22;10245;51.344;6.620;2023-04-15T11:52:40;12.70;65.20
20171;DHT22;10245;51.344;6.620;2023-04-15T11:55:06;12.20;66.40
20171;DHT22;10245;51.344;6.620;2023-04-15T11:57:30;12.40;67.10
20171;DHT22;10245;51.344;6.620;2023-04-15T11:59:54;12.30;68.20
20171;DHT22;10245;51.344;6.620;2023-04-15T12:02:17;12.50;67.10
20171;DHT22;10245;51.344;6.620;2023-04-15T12:04:42;12.50;67.20
20171;DHT22;10245;51.344;6.620;2023-04-15T12:07:07;12.50;68.70
20171;DHT22;10245;51.344;6.620;2023-04-15T12:09:36;12.60;68.10
20171;DHT22;10245;51.344;6.620;2023-04-15T12:12:00;12.50;67.20
20171;DHT22;10245;51.344;6.620;2023-04-15T12:14:25;12.70;67.10
20171;DHT22;10245;51.344;6.620;2023-04-15T12:16:50;12.60;67.10
20171;DHT22;10245;51.344;6.620;2023-04-15T12:19:22;12.50;68.00
20171;DHT22;10245;51.344;6.620;2023-04-15T12:21:48;12.40;68.10
20171;DHT22;10245;51.344;6.620;2023-04-15T12:24:12;12.50;66.50
20171;DHT22;10245;51.344;6.620;2023-04-15T12:26:36;12.30;66.70
20171;DHT22;10245;51.344;6.620;2023-04-15T12:29:05;12.20;70.10
20171;DHT22;10245;51.344;6.620;2023-04-15T12:31:30;12.40;67.80
20171;DHT22;10245;51.344;6.620;2023-04-15T12:33:54;12.50;69.80
20171;DHT22;10245;51.344;6.620;2023-04-15T12:36:18;12.20;66.30
20171;DHT22;10245;51.344;6.620;2023-04-15T12:38:42;12.50;68.30
20171;DHT22;10245;51.344;6.620;2023-04-15T12:41:06;12.50;67.80
20171;DHT22;10245;51.344;6.620;2023-04-15T12:43:29;12.60;67.50
20171;DHT22;10245;51.344;6.620;2023-04-15T12:45:52;12.60;67.50
20171;DHT22;10245;51.344;6.620;2023-04-15T12:48:16;12.40;67.10
20171;DHT22;10245;51.344;6.620;2023-04-15T12:50:39;12.50;68.00
20171;DHT22;10245;51.344;6.620;2023-04-15T12:53:03;12.60;67.20
20171;DHT22;10245;51.344;6.620;2023-04-15T12:55:27;12.50;67.00
20171;DHT22;10245;51.344;6.620;2023-04-15T12:57:51;12.20;67.70
20171;DHT22;10245;51.344;6.620;2023-04-15T13:00:15;12.00;69.70
20171;DHT22;10245;51.344;6.620;2023-04-15T13:02:40;12.00;69.00
20171;DHT22;10245;51.344;6.620;2023-04-15T13:05:06;11.60;70.10
20171;DHT22;10245;51.344;6.620;2023-04-15T13:07:29;11.30;70.80
20171;DHT22;10245;51.344;6.620;2023-04-15T13:09:53;11.60;71.70
20171;DHT22;10245;51.344;6.620;2023-04-15T13:12:17;11.50;70.40
20171;DHT22;10245;51.344;6.620;2023-04-15T13:14:41;11.50;71.50
20171;DHT22;10245;51.344;6.620;2023-04-15T13:17:04;11.80;71.10
20171;DHT22;10245;51.344;6.620;2023-04-15T13:19:30;11.90;70.50
20171;DHT22;10245;51.344;6.620;2023-04-15T13:21:54;11.80;70.60
20171;DHT22;10245;51.344;6.620;2023-04-15T13:24:17;11.90;69.70
20171;DHT22;10245;51.344;6.620;2023-04-15T13:26:41;11.70;70.40
20171;DHT22;10245;51.344;6.620;2023-04-15T13:29:05;11.60;69.90
20171;DHT22;10245;51.344;6.620;2023-04-15T13:31:28;11.50;71.00
20171;DHT22;10245;51.344;6.620;2023-04-15T13:33:52;12.00;70.90
20171;DHT22;10245;51.344;6.620;2023-04-15T13:36:15;12.00;70.60
20171;DHT22;10245;51.344;6.620;2023-04-15T13:38:39;12.00;69.90
20171;DHT22;10245;51.344;6.620;2023-04-15T13:41:02;11.90;69.50
20171;DHT22;10245;51.344;6.620;2023-04-15T13:43:25;12.00;69.90
20171;DHT22;10245;51.344;6.620;2023-04-15T13:45:50;11.90;69.70
20171;DHT22;10245;51.344;6.620;2023-04-15T13:48:13;11.90;69.30
20171;DHT22;10245;51.344;6.620;2023-04-15T13:50:37;12.00;69.20
20171;DHT22;10245;51.344;6.620;2023-04-15T13:53:02;12.00;68.80
20171;DHT22;10245;51.344;6.620;2023-04-15T13:55:25;12.00;70.20
20171;DHT22;10245;51.344;6.620;2023-04-15T13:57:49;12.00;69.80
20171;DHT22;10245;51.344;6.620;2023-04-15T14:00:13;12.00;69.60
20171;DHT22;10245;51.344;6.620;2023-04-15T14:02:39;12.20;70.60
20171;DHT22;10245;51.344;6.620;2023-04-15T14:05:03;12.00;70.30
20171;DHT22;10245;51.344;6.620;2023-04-15T14:07:28;12.00;70.80
20171;DHT22;10245;51.344;6.620;2023-04-15T14:09:52;11.80;71.00
20171;DHT22;10245;51.344;6.620;2023-04-15T14:12:15;11.70;71.70
20171;DHT22;10245;51.344;6.620;2023-04-15T14:14:38;11.60;71.60
20171;DHT22;10245;51.344;6.620;2023-04-15T14:17:02;11.50;72.00
20171;DHT22;10245;51.344;6.620;2023-04-15T14:19:29;11.40;72.90
20171;DHT22;10245;51.344;6.620;2023-04-15T14:21:53;11.30;72.70
20171;DHT22;10245;51.344;6.620;2023-04-15T14:24:16;11.20;73.10
20171;DHT22;10245;51.344;6.620;2023-04-15T14:26:39;11.10;72.60
20171;DHT22;10245;51.344;6.620;2023-04-15T14:29:05;11.10;72.70
20171;DHT22;10245;51.344;6.620;2023-04-15T14:31:28;11.20;72.60
20171;DHT22;10245;51.344;6.620;2023-04-15T14:33:52;11.20;73.40
20171;DHT22;10245;51.344;6.620;2023-04-15T14:36:16;11.30;73.30
20171;DHT22;10245;51.344;6.620;2023-04-15T14:38:40;11.40;73.10
20171;DHT22;10245;51.344;6.620;2023-04-15T14:41:03;11.20;72.30
20171;DHT22;10245;51.344;6.620;2023-04-15T14:43:26;11.30;73.50
20171;DHT22;10245;51.344;6.620;2023-04-15T14:45:50;11.40;73.30
20171;DHT22;10245;51.344;6.620;2023-04-15T14:48:13;11.10;72.80
20171;DHT22;10245;51.344;6.620;2023-04-15T14:50:36;11.20;72.80
20171;DHT22;10245;51.344;6.620;2023-04-15T14:53:01;11.30;73.40
20171;DHT22;10245;51.344;6.620;2023-04-15T14:55:24;11.50;72.30
20171;DHT22;10245;51.344;6.620;2023-04-15T14:57:48;11.20;73.60
20171;DHT22;10245;51.344;6.620;2023-04-15T15:00:12;11.00;71.90
20171;DHT22;10245;51.344;6.620;2023-04-15T15:02:37;11.10;73.70
20171;DHT22;10245;51.344;6.620;2023-04-15T15:05:02;11.30;72.90
20171;DHT22;10245;51.344;6.620;2023-04-15T15:07:25;11.40;72.10
20171;DHT22;10245;51.344;6.620;2023-04-15T15:09:50;11.40;71.40
20171;DHT22;10245;51.344;6.620;2023-04-15T15:12:13;11.50;72.30
20171;DHT22;10245;51.344;6.620;2023-04-15T15:14:37;11.50;72.40
20171;DHT22;10245;51.344;6.620;2023-04-15T15:17:00;11.50;71.30
20171;DHT22;10245;51.344;6.620;2023-04-15T15:19:24;11.60;71.50